Time;durP1;ratioP1;P1;durP2;ratioP2;P2;SDS_P1;SDS_P2;PMS_P1;PMS_P2;Temp;Humidity;BMP_temperature;BMP_pressure;BME280_temperature;BME280_humidity;BME280_pressure;Samples;Min_cycle;Max_cycle;Signal;HPM_P1;HPM_P2
2023/04/19 00:00:49;;;;;;;14.70;8.63;;;;;;;;;;5028372;28;20044;-78
2023/04/19 00:03:16;;;;;;;12.52;8.35;;;;;;;;;;5045748;28;20056;-78
2023/04/19 00:05:42;;;;;;;12.15;8.18;;;;;;;;;;5046471;28;20048;-77
2023/04/19 00:08:08;;;;;;;13.30;7.97;;;;;;;;;;5026442;28;20048;-77
2023/04/19 00:10:38;;;;;;;11.70;8.35;;;;;;;;;;5026922;28;20654;-78
2023/04/19 00:13:04;;;;;;;12.60;9.05;;;;;;;;;;5027896;28;20048;-78
2023/04/19 00:15:31;;;;;;;11.65;8.05;;;;;;;;;;5012516;28;20098;-78
2023/04/19 00:17:57;;;;;;;14.52;8.52;;;;;;;;;;5045449;28;20036;-78
2023/04/19 00:20:23;;;;;;;12.82;8.63;;;;;;;;;;5028265;28;21964;-77
2023/04/19 00:22:49;;;;;;;12.23;8.93;;;;;;;;;;5047500;28;20485;-77
2023/04/19 00:25:15;;;;;;;13.23;8.63;;;;;;;;;;5026796;28;20102;-77
2023/04/19 00:27:41;;;;;;;11.35;8.48;;;;;;;;;;5047665;28;20040;-77
2023/04/19 00:30:07;;;;;;;13.10;8.88;;;;;;;;;;5009522;28;20040;-77
2023/04/19 00:32:33;;;;;;;10.48;7.85;;;;;;;;;;5043280;28;20045;-77
2023/04/19 00:34:59;;;;;;;13.45;9.65;;;;;;;;;;5008719;28;20048;-77
2023/04/19 00:37:25;;;;;;;13.52;9.35;;;;;;;;;;5045323;28;20044;-77
2023/04/19 00:39:51;;;;;;;13.10;9.82;;;;;;;;;;5019759;28;20153;-77
2023/04/19 00:42:17;;;;;;;12.38;9.80;;;;;;;;;;5023814;28;20047;-77
2023/04/19 00:44:43;;;;;;;12.70;9.82;;;;;;;;;;5023843;28;20040;-78
2023/04/19 00:47:10;;;;;;;14.05;10.10;;;;;;;;;;5024981;28;20044;-77
2023/04/19 00:49:36;;;;;;;14.52;10.18;;;;;;;;;;5043014;28;21019;-77
2023/04/19 00:52:03;;;;;;;13.77;9.70;;;;;;;;;;5025110;28;20117;-77
2023/04/19 00:54:29;;;;;;;18.13;10.70;;;;;;;;;;5024083;28;20053;-77
2023/04/19 00:56:55;;;;;;;16.42;9.95;;;;;;;;;;5036061;28;20052;-76
2023/04/19 00:59:22;;;;;;;13.85;10.38;;;;;;;;;;5043623;28;20079;-77
2023/04/19 01:01:48;;;;;;;15.07;10.82;;;;;;;;;;5025414;28;20048;-78
2023/04/19 01:04:15;;;;;;;13.70;10.07;;;;;;;;;;5020931;28;20048;-77
2023/04/19 01:06:41;;;;;;;17.50;11.32;;;;;;;;;;5019465;28;20044;-77
2023/04/19 01:09:08;;;;;;;12.60;10.00;;;;;;;;;;5022285;28;20094;-77
2023/04/19 01:11:34;;;;;;;15.27;10.15;;;;;;;;;;5023320;28;20045;-77
2023/04/19 01:14:00;;;;;;;16.38;10.73;;;;;;;;;;5044237;28;20041;-77
2023/04/19 01:16:26;;;;;;;13.20;9.75;;;;;;;;;;5024668;28;20040;-77
2023/04/19 01:18:52;;;;;;;17.70;10.90;;;;;;;;;;5025319;28;20182;-77
2023/04/19 01:21:18;;;;;;;15.43;10.40;;;;;;;;;;5007475;28;20044;-77
2023/04/19 01:23:44;;;;;;;14.50;10.77;;;;;;;;;;5020364;28;20080;-77
2023/04/19 01:26:11;;;;;;;13.60;9.27;;;;;;;;;;5021695;28;20110;-77
2023/04/19 01:28:37;;;;;;;13.60;10.05;;;;;;;;;;5023970;28;20056;-77
2023/04/19 01:31:03;;;;;;;14.45;9.90;;;;;;;;;;5022725;28;20055;-78
2023/04/19 01:33:29;;;;;;;17.15;9.98;;;;;;;;;;5026859;28;20036;-77
2023/04/19 01:35:55;;;;;;;13.38;10.20;;;;;;;;;;5023927;28;20049;-77
2023/04/19 01:38:21;;;;;;;14.93;10.10;;;;;;;;;;5026687;28;20048;-77
2023/04/19 01:40:47;;;;;;;12.70;10.38;;;;;;;;;;5024376;28;20048;-77
2023/04/19 01:43:14;;;;;;;13.88;10.95;;;;;;;;;;5026335;28;20508;-77
2023/04/19 01:45:40;;;;;;;13.80;10.10;;;;;;;;;;5024260;28;20047;-78
2023/04/19 01:48:07;;;;;;;14.18;9.93;;;;;;;;;;5039185;28;20046;-77
2023/04/19 01:50:33;;;;;;;13.48;9.25;;;;;;;;;;5023427;28;22672;-78
2023/04/19 01:52:59;;;;;;;13.35;9.68;;;;;;;;;;5040189;28;20059;-77
2023/04/19 01:55:25;;;;;;;12.43;8.95;;;;;;;;;;5039598;28;20049;-77
2023/04/19 01:57:52;;;;;;;11.30;9.35;;;;;;;;;;5005067;28;20223;-77
2023/04/19 02:00:18;;;;;;;14.77;9.63;;;;;;;;;;5022629;28;20048;-77
2023/04/19 02:02:45;;;;;;;13.20;9.60;;;;;;;;;;5023232;28;21828;-77
2023/04/19 02:05:11;;;;;;;17.40;9.75;;;;;;;;;;5041722;28;20451;-77
2023/04/19 02:07:37;;;;;;;16.90;9.68;;;;;;;;;;5041632;28;20102;-77
2023/04/19 02:10:04;;;;;;;13.18;8.77;;;;;;;;;;5024432;28;21340;-77
2023/04/19 02:12:32;;;;;;;14.38;8.63;;;;;;;;;;5035186;28;20047;-77
2023/04/19 02:14:58;;;;;;;12.77;9.52;;;;;;;;;;5019532;28;20044;-77
2023/04/19 02:17:24;;;;;;;12.75;8.85;;;;;;;;;;5022618;28;20135;-77
2023/04/19 02:19:50;;;;;;;13.82;8.80;;;;;;;;;;5040306;28;20119;-77
2023/04/19 02:22:17;;;;;;;17.85;8.55;;;;;;;;;;5019835;28;20468;-77
2023/04/19 02:24:43;;;;;;;15.57;9.48;;;;;;;;;;5015629;28;20054;-77
2023/04/19 02:27:09;;;;;;;13.38;9.15;;;;;;;;;;5035422;28;20040;-77
2023/04/19 02:29:35;;;;;;;15.70;9.30;;;;;;;;;;5017455;28;20045;-77
2023/04/19 02:32:04;;;;;;;17.17;9.60;;;;;;;;;;5019735;28;20075;-77
2023/04/19 02:34:31;;;;;;;11.98;8.73;;;;;;;;;;5019044;28;20424;-77
2023/04/19 02:36:57;;;;;;;13.38;9.27;;;;;;;;;;5036082;28;20049;-76
2023/04/19 02:39:23;;;;;;;11.18;9.05;;;;;;;;;;5019141;28;20701;-77
2023/04/19 02:41:49;;;;;;;12.48;8.63;;;;;;;;;;5030859;28;20123;-77
2023/04/19 02:44:15;;;;;;;12.52;9.48;;;;;;;;;;5037852;28;20048;-77
2023/04/19 02:46:41;;;;;;;12.35;9.40;;;;;;;;;;5016751;28;22142;-77
2023/04/19 02:49:08;;;;;;;14.35;9.45;;;;;;;;;;4999336;28;20048;-77
2023/04/19 02:51:34;;;;;;;15.25;8.95;;;;;;;;;;5019118;28;20472;-77
2023/04/19 02:54:00;;;;;;;14.07;8.65;;;;;;;;;;5038128;28;20132;-77
2023/04/19 02:56:26;;;;;;;13.40;8.80;;;;;;;;;;5035559;28;21378;-77
2023/04/19 02:58:53;;;;;;;15.13;9.23;;;;;;;;;;5017036;28;20048;-77
2023/04/19 03:01:20;;;;;;;14.73;8.73;;;;;;;;;;5019930;28;20947;-77
2023/04/19 03:03:46;;;;;;;11.45;8.80;;;;;;;;;;5016333;28;20044;-77
2023/04/19 03:06:12;;;;;;;14.88;8.80;;;;;;;;;;5020221;28;20052;-77
2023/04/19 03:08:38;;;;;;;11.93;8.32;;;;;;;;;;5022965;28;20078;-77
2023/04/19 03:11:05;;;;;;;14.77;7.95;;;;;;;;;;5022079;28;20477;-77
2023/04/19 03:13:31;;;;;;;10.70;8.35;;;;;;;;;;5018352;28;20076;-77
2023/04/19 03:15:57;;;;;;;12.27;8.55;;;;;;;;;;5013651;28;20060;-77
2023/04/19 03:18:23;;;;;;;12.18;8.10;;;;;;;;;;5021726;28;20635;-77
2023/04/19 03:20:49;;;;;;;11.13;7.65;;;;;;;;;;5040314;28;20040;-77
2023/04/19 03:23:15;;;;;;;12.85;8.15;;;;;;;;;;5023225;28;21942;-77
2023/04/19 03:25:41;;;;;;;13.25;7.88;;;;;;;;;;5043663;28;20067;-77
2023/04/19 03:28:07;;;;;;;13.65;7.63;;;;;;;;;;5021526;28;20090;-77
2023/04/19 03:30:33;;;;;;;11.73;8.18;;;;;;;;;;5024077;28;20048;-78
2023/04/19 03:33:00;;;;;;;11.38;7.82;;;;;;;;;;5004838;28;20044;-77
2023/04/19 03:35:28;;;;;;;11.30;7.75;;;;;;;;;;5024435;28;22023;-77
2023/04/19 03:37:54;;;;;;;14.27;7.93;;;;;;;;;;5009109;28;20059;-76
2023/04/19 03:40:20;;;;;;;12.15;7.68;;;;;;;;;;5027853;28;20150;-76
2023/04/19 03:42:46;;;;;;;9.93;7.10;;;;;;;;;;5012926;28;20056;-77
2023/04/19 03:45:12;;;;;;;10.07;7.35;;;;;;;;;;5031891;28;20427;-77
2023/04/19 03:47:38;;;;;;;14.43;6.72;;;;;;;;;;5028240;28;20048;-77
2023/04/19 03:50:05;;;;;;;12.13;6.75;;;;;;;;;;5047193;28;20110;-76
2023/04/19 03:52:31;;;;;;;14.43;7.88;;;;;;;;;;5026494;28;20048;-76
2023/04/19 03:54:57;;;;;;;9.50;6.85;;;;;;;;;;5047507;28;20049;-76
2023/04/19 03:57:23;;;;;;;8.45;6.95;;;;;;;;;;5042456;28;20060;-76
2023/04/19 03:59:49;;;;;;;10.40;6.53;;;;;;;;;;5049331;28;20037;-76
2023/04/19 04:02:15;;;;;;;11.75;6.70;;;;;;;;;;5028050;28;20297;-76
2023/04/19 04:04:41;;;;;;;10.25;7.18;;;;;;;;;;5031790;28;20105;-77
2023/04/19 04:07:07;;;;;;;13.07;6.55;;;;;;;;;;5025248;28;20044;-76
2023/04/19 04:09:33;;;;;;;9.38;6.15;;;;;;;;;;5033460;28;20139;-75
2023/04/19 04:11:59;;;;;;;11.00;6.93;;;;;;;;;;5026318;28;22007;-75
2023/04/19 04:14:25;;;;;;;8.25;6.05;;;;;;;;;;5025761;28;22090;-76
2023/04/19 04:16:51;;;;;;;10.20;6.07;;;;;;;;;;5021257;28;20664;-74
2023/04/19 04:19:20;;;;;;;11.20;6.53;;;;;;;;;;5024153;28;20409;-76
2023/04/19 04:21:46;;;;;;;8.13;6.30;;;;;;;;;;5042127;28;20048;-77
2023/04/19 04:24:12;;;;;;;9.93;6.20;;;;;;;;;;5042185;28;20044;-75
2023/04/19 04:26:38;;;;;;;10.75;6.13;;;;;;;;;;5021664;28;20052;-76
2023/04/19 04:29:05;;;;;;;9.50;5.95;;;;;;;;;;5011747;28;20040;-76
2023/04/19 04:31:31;;;;;;;8.13;6.35;;;;;;;;;;5022548;28;20037;-76
2023/04/19 04:33:57;;;;;;;8.13;5.95;;;;;;;;;;5041562;28;20120;-77
2023/04/19 04:36:25;;;;;;;8.25;6.28;;;;;;;;;;5026391;28;20503;-77
2023/04/19 04:38:51;;;;;;;8.27;5.82;;;;;;;;;;5028646;28;20049;-77
2023/04/19 04:41:17;;;;;;;8.73;5.80;;;;;;;;;;5025951;28;20036;-77
2023/04/19 04:43:48;;;;;;;9.88;6.05;;;;;;;;;;5048153;28;20512;-77
2023/04/19 04:46:14;;;;;;;8.35;5.80;;;;;;;;;;5027745;28;20044;-77
2023/04/19 04:48:40;;;;;;;10.55;6.03;;;;;;;;;;5027356;28;20051;-76
2023/04/19 04:51:06;;;;;;;10.20;5.30;;;;;;;;;;5012285;28;20616;-77
2023/04/19 04:53:32;;;;;;;7.47;5.75;;;;;;;;;;5009396;28;20074;-76
2023/04/19 04:55:58;;;;;;;10.35;6.20;;;;;;;;;;5049234;28;20087;-76
2023/04/19 04:58:24;;;;;;;8.50;5.72;;;;;;;;;;5025017;28;20135;-76
2023/04/19 05:00:50;;;;;;;8.90;6.22;;;;;;;;;;5029804;28;20090;-76
2023/04/19 05:03:16;;;;;;;9.25;6.25;;;;;;;;;;5024683;28;20040;-75
2023/04/19 05:05:45;;;;;;;7.72;5.20;;;;;;;;;;5044251;28;20159;-77
2023/04/19 05:08:12;;;;;;;7.25;5.53;;;;;;;;;;5046842;28;20040;-77
2023/04/19 05:10:38;;;;;;;9.20;5.47;;;;;;;;;;5005805;28;20048;-76
2023/04/19 05:13:04;;;;;;;8.95;5.85;;;;;;;;;;5049148;28;20041;-77
2023/04/19 05:15:30;;;;;;;7.53;4.95;;;;;;;;;;5047412;28;20139;-76
2023/04/19 05:17:56;;;;;;;7.45;5.07;;;;;;;;;;5029589;28;20045;-77
2023/04/19 05:20:22;;;;;;;11.02;5.55;;;;;;;;;;5048942;28;20088;-76
2023/04/19 05:22:48;;;;;;;9.70;5.63;;;;;;;;;;5048117;28;20082;-77
2023/04/19 05:25:14;;;;;;;7.60;5.43;;;;;;;;;;5043531;28;21274;-75
2023/04/19 05:27:40;;;;;;;7.70;4.85;;;;;;;;;;5048498;28;20045;-76
2023/04/19 05:30:07;;;;;;;10.00;5.20;;;;;;;;;;5047508;28;20044;-76
2023/04/19 05:32:33;;;;;;;6.70;4.63;;;;;;;;;;5025954;28;20043;-76
2023/04/19 05:34:59;;;;;;;9.52;4.88;;;;;;;;;;5009075;28;20184;-76
2023/04/19 05:37:25;;;;;;;7.05;5.10;;;;;;;;;;5027583;28;20051;-77
2023/04/19 05:39:51;;;;;;;7.95;4.70;;;;;;;;;;5028498;28;20366;-77
2023/04/19 05:42:17;;;;;;;6.38;4.68;;;;;;;;;;5024506;28;20130;-78
2023/04/19 05:44:43;;;;;;;5.95;4.88;;;;;;;;;;5025887;28;20044;-78
2023/04/19 05:47:09;;;;;;;6.80;4.57;;;;;;;;;;5027245;28;20075;-78
2023/04/19 05:49:35;;;;;;;5.85;4.53;;;;;;;;;;5030614;28;20048;-77
2023/04/19 05:52:01;;;;;;;8.10;4.90;;;;;;;;;;5029619;28;20048;-78
2023/04/19 05:54:27;;;;;;;9.48;5.30;;;;;;;;;;5050417;28;20133;-78
2023/04/19 05:56:53;;;;;;;7.40;4.90;;;;;;;;;;5046746;28;20056;-78
2023/04/19 05:59:19;;;;;;;7.32;4.63;;;;;;;;;;5053050;28;20056;-79
2023/04/19 06:01:45;;;;;;;6.40;4.43;;;;;;;;;;5048202;28;20118;-79
2023/04/19 06:04:11;;;;;;;5.97;4.47;;;;;;;;;;5027813;28;20047;-79
2023/04/19 06:06:38;;;;;;;9.18;4.18;;;;;;;;;;5022316;28;20538;-79
2023/04/19 06:09:05;;;;;;;8.48;4.25;;;;;;;;;;5027419;28;20099;-78
2023/04/19 06:11:31;;;;;;;10.90;4.90;;;;;;;;;;5026834;28;20660;-79
2023/04/19 06:13:58;;;;;;;7.22;4.07;;;;;;;;;;5023586;28;20040;-78
2023/04/19 06:16:24;;;;;;;7.53;4.50;;;;;;;;;;5005279;28;20110;-78
2023/04/19 06:18:50;;;;;;;5.32;4.47;;;;;;;;;;5023986;28;20075;-77
2023/04/19 06:21:16;;;;;;;8.35;4.45;;;;;;;;;;5025121;28;20040;-78
2023/04/19 06:23:42;;;;;;;8.07;4.10;;;;;;;;;;4993523;28;20094;-78
2023/04/19 06:26:08;;;;;;;6.28;3.85;;;;;;;;;;5045035;28;20044;-78
2023/04/19 06:28:34;;;;;;;15.98;4.35;;;;;;;;;;5012290;28;20171;-78
2023/04/19 06:31:00;;;;;;;8.68;5.57;;;;;;;;;;5022800;28;20056;-78
2023/04/19 06:33:26;;;;;;;5.32;4.15;;;;;;;;;;5027160;28;20048;-78
2023/04/19 06:35:52;;;;;;;6.53;3.85;;;;;;;;;;5028340;28;20048;-79
2023/04/19 06:38:18;;;;;;;7.93;4.18;;;;;;;;;;5029082;28;20127;-79
2023/04/19 06:40:44;;;;;;;7.68;4.43;;;;;;;;;;5029346;28;20109;-78
2023/04/19 06:43:10;;;;;;;6.43;3.80;;;;;;;;;;5029784;28;20045;-78
2023/04/19 06:45:36;;;;;;;6.55;4.13;;;;;;;;;;5028170;28;20151;-78
2023/04/19 06:48:03;;;;;;;6.43;3.88;;;;;;;;;;5026262;28;20044;-78
2023/04/19 06:50:29;;;;;;;9.23;4.15;;;;;;;;;;5046139;28;20067;-78
2023/04/19 06:52:55;;;;;;;5.35;3.20;;;;;;;;;;4992704;28;20090;-79
2023/04/19 06:55:21;;;;;;;4.15;3.65;;;;;;;;;;5027362;28;20041;-78
2023/04/19 06:57:47;;;;;;;4.68;3.38;;;;;;;;;;5041676;28;20148;-78
2023/04/19 07:00:14;;;;;;;4.65;3.40;;;;;;;;;;5027350;28;20400;-78
2023/04/19 07:02:40;;;;;;;5.38;3.40;;;;;;;;;;5025910;28;20047;-78
2023/04/19 07:05:07;;;;;;;4.75;3.33;;;;;;;;;;5009359;28;20061;-79
2023/04/19 07:07:33;;;;;;;13.30;2.85;;;;;;;;;;5028281;28;20052;-78
2023/04/19 07:09:59;;;;;;;6.32;3.03;;;;;;;;;;5024720;28;20048;-78
2023/04/19 07:12:25;;;;;;;4.47;3.00;;;;;;;;;;5021946;28;20063;-78
2023/04/19 07:14:55;;;;;;;3.03;2.72;;;;;;;;;;5023121;28;20079;-76
2023/04/19 07:17:22;;;;;;;5.80;2.88;;;;;;;;;;5027680;28;20049;-77
2023/04/19 07:19:48;;;;;;;3.92;2.60;;;;;;;;;;5010792;28;20067;-76
2023/04/19 07:22:14;;;;;;;3.97;2.63;;;;;;;;;;5028555;28;20044;-76
2023/04/19 07:24:42;;;;;;;8.50;3.10;;;;;;;;;;5048508;28;20761;-76
2023/04/19 07:27:08;;;;;;;7.25;2.67;;;;;;;;;;5011293;28;20378;-76
2023/04/19 07:29:35;;;;;;;3.75;2.70;;;;;;;;;;5030435;28;20170;-76
2023/04/19 07:32:01;;;;;;;9.02;3.03;;;;;;;;;;5030446;28;20449;-76
2023/04/19 07:34:27;;;;;;;4.28;2.67;;;;;;;;;;5029024;28;20049;-76
2023/04/19 07:36:53;;;;;;;3.17;2.80;;;;;;;;;;5030556;28;20041;-76
2023/04/19 07:39:19;;;;;;;3.10;2.40;;;;;;;;;;5031765;28;20040;-76
2023/04/19 07:41:46;;;;;;;4.20;2.60;;;;;;;;;;5049515;28;20045;-76
2023/04/19 07:44:12;;;;;;;4.03;2.78;;;;;;;;;;5028719;28;20040;-76
2023/04/19 07:46:38;;;;;;;4.18;2.20;;;;;;;;;;5048456;28;20650;-76
2023/04/19 07:49:04;;;;;;;4.53;2.55;;;;;;;;;;5028764;28;20040;-76
2023/04/19 07:51:30;;;;;;;3.17;2.15;;;;;;;;;;5031747;28;20215;-78
2023/04/19 07:53:56;;;;;;;4.97;2.75;;;;;;;;;;5049971;28;20400;-77
2023/04/19 07:56:25;;;;;;;2.35;2.15;;;;;;;;;;5028582;28;20167;-77
2023/04/19 07:58:51;;;;;;;2.38;2.17;;;;;;;;;;5045633;28;20063;-77
2023/04/19 08:01:17;;;;;;;2.67;2.08;;;;;;;;;;5045611;28;20545;-77
2023/04/19 08:03:43;;;;;;;2.88;2.13;;;;;;;;;;5009003;28;20052;-77
2023/04/19 08:06:09;;;;;;;2.25;1.83;;;;;;;;;;5026637;28;20091;-78
2023/04/19 08:08:36;;;;;;;2.90;2.00;;;;;;;;;;5007499;28;20477;-78
2023/04/19 08:11:02;;;;;;;2.50;2.03;;;;;;;;;;5043295;28;20056;-78
2023/04/19 08:13:29;;;;;;;3.78;2.40;;;;;;;;;;5027061;28;20040;-78
2023/04/19 08:15:55;;;;;;;2.50;1.92;;;;;;;;;;5045697;28;20049;-78
2023/04/19 08:18:21;;;;;;;4.47;2.40;;;;;;;;;;5042635;28;20072;-78
2023/04/19 08:20:47;;;;;;;4.78;2.10;;;;;;;;;;5026604;28;20118;-78
2023/04/19 08:23:13;;;;;;;4.03;2.00;;;;;;;;;;5045249;28;20040;-78
2023/04/19 08:25:40;;;;;;;2.42;2.10;;;;;;;;;;5027229;28;20055;-78
2023/04/19 08:28:06;;;;;;;3.15;2.17;;;;;;;;;;5043062;28;20132;-78
2023/04/19 08:30:32;;;;;;;4.68;1.83;;;;;;;;;;5029829;28;20488;-78
2023/04/19 08:32:58;;;;;;;1.80;1.70;;;;;;;;;;5050240;28;22018;-78
2023/04/19 08:35:24;;;;;;;2.25;1.80;;;;;;;;;;5047562;28;20052;-78
2023/04/19 08:37:50;;;;;;;5.15;2.10;;;;;;;;;;5014011;28;20041;-78
2023/04/19 08:40:17;;;;;;;6.72;1.90;;;;;;;;;;5026217;28;20575;-77
2023/04/19 08:42:43;;;;;;;2.45;1.67;;;;;;;;;;5045436;28;20163;-78
2023/04/19 08:45:12;;;;;;;2.30;1.98;;;;;;;;;;5027770;28;20138;-77
2023/04/19 08:47:38;;;;;;;1.60;1.50;;;;;;;;;;5040573;28;20440;-76
2023/04/19 08:50:05;;;;;;;6.43;2.30;;;;;;;;;;5044545;28;20039;-77
2023/04/19 08:52:35;;;;;;;3.20;1.75;;;;;;;;;;5046506;28;20045;-77
2023/04/19 08:55:05;;;;;;;5.00;1.83;;;;;;;;;;5044583;28;20049;-78
2023/04/19 08:57:31;;;;;;;4.72;1.88;;;;;;;;;;5022404;28;20055;-77
2023/04/19 08:59:58;;;;;;;2.90;1.70;;;;;;;;;;5024217;28;20048;-77
2023/04/19 09:02:24;;;;;;;2.92;1.58;;;;;;;;;;5026690;28;20037;-78
2023/04/19 09:04:50;;;;;;;2.42;1.60;;;;;;;;;;5019175;28;20045;-77
2023/04/19 09:07:26;;;;;;;2.92;1.58;;;;;;;;;;5025369;28;20113;-78
2023/04/19 09:10:09;;;;;;;6.75;1.60;;;;;;;;;;5008724;28;20045;-77
2023/04/19 09:12:35;;;;;;;1.52;1.25;;;;;;;;;;5006829;28;20504;-77
2023/04/19 09:15:03;;;;;;;2.80;1.52;;;;;;;;;;5023604;28;20068;-78
2023/04/19 09:17:32;;;;;;;3.05;1.70;;;;;;;;;;5024937;28;20048;-81
2023/04/19 09:19:58;;;;;;;3.28;1.60;;;;;;;;;;5025114;28;20033;-80
2023/04/19 09:22:25;;;;;;;1.70;1.27;;;;;;;;;;5023456;28;20041;-80
2023/04/19 09:24:51;;;;;;;2.58;1.35;;;;;;;;;;5023630;28;20084;-79
2023/04/19 09:27:27;;;;;;;2.90;1.30;;;;;;;;;;5026227;28;20485;-79
2023/04/19 09:29:54;;;;;;;3.38;1.70;;;;;;;;;;5021551;28;20128;-79
2023/04/19 09:32:20;;;;;;;2.15;1.10;;;;;;;;;;5025862;28;20082;-79
2023/04/19 09:34:52;;;;;;;2.88;1.13;;;;;;;;;;5024900;28;20127;-79
2023/04/19 09:37:19;;;;;;;2.65;1.50;;;;;;;;;;5024007;28;20075;-80
2023/04/19 09:39:45;;;;;;;1.30;1.20;;;;;;;;;;5026204;28;20087;-79
2023/04/19 09:42:11;;;;;;;6.10;1.42;;;;;;;;;;5026894;28;20052;-79
2023/04/19 09:44:37;;;;;;;3.60;1.35;;;;;;;;;;5024763;28;20609;-78
2023/04/19 09:47:21;;;;;;;2.72;1.27;;;;;;;;;;5042812;28;20049;-79
2023/04/19 09:49:47;;;;;;;1.77;1.05;;;;;;;;;;5026260;28;20048;-79
2023/04/19 09:52:14;;;;;;;2.65;1.40;;;;;;;;;;5025121;28;20068;-78
2023/04/19 09:54:41;;;;;;;3.58;1.30;;;;;;;;;;5032034;28;20045;-78
2023/04/19 09:57:07;;;;;;;6.18;1.38;;;;;;;;;;5028780;28;20055;-78
2023/04/19 09:59:34;;;;;;;2.33;1.30;;;;;;;;;;5025458;28;20049;-78
2023/04/19 10:02:00;;;;;;;2.63;1.48;;;;;;;;;;5029455;28;20047;-78
2023/04/19 10:04:26;;;;;;;3.17;1.27;;;;;;;;;;5029759;28;20044;-77
2023/04/19 10:06:53;;;;;;;2.30;1.38;;;;;;;;;;5028025;28;20399;-78
2023/04/19 10:09:20;;;;;;;2.35;1.50;;;;;;;;;;5030336;28;20044;-78
2023/04/19 10:11:50;;;;;;;3.17;1.35;;;;;;;;;;5030560;28;20044;-79
2023/04/19 10:14:18;;;;;;;1.52;1.20;;;;;;;;;;5028067;28;20041;-77
2023/04/19 10:16:45;;;;;;;2.83;1.55;;;;;;;;;;5028007;28;20043;-78
2023/04/19 10:19:12;;;;;;;4.55;1.42;;;;;;;;;;5029056;28;20138;-77
2023/04/19 10:21:39;;;;;;;1.90;1.25;;;;;;;;;;5026295;28;20068;-77
2023/04/19 10:24:05;;;;;;;4.97;3.25;;;;;;;;;;5028075;28;20072;-78
2023/04/19 10:26:51;;;;;;;1.95;1.40;;;;;;;;;;5030492;28;20048;-78
2023/04/19 10:29:37;;;;;;;1.85;1.35;;;;;;;;;;5029844;28;20052;-78
2023/04/19 10:32:05;;;;;;;4.65;1.60;;;;;;;;;;5028608;28;20068;-79
2023/04/19 10:34:39;;;;;;;4.85;1.42;;;;;;;;;;5029918;28;20401;-78
2023/04/19 10:37:05;;;;;;;;;;;;;;;;;;5028602;28;20040;-78
2023/04/19 10:39:42;;;;;;;1.92;1.38;;;;;;;;;;5040758;28;19916;-78
2023/04/19 10:42:08;;;;;;;1.77;1.50;;;;;;;;;;5028670;28;20041;-78
2023/04/19 10:44:34;;;;;;;2.47;1.52;;;;;;;;;;5029194;28;20045;-79
2023/04/19 10:47:00;;;;;;;3.33;1.55;;;;;;;;;;5027843;28;20049;-78
2023/04/19 10:49:28;;;;;;;2.67;1.20;;;;;;;;;;5027989;28;20053;-79
2023/04/19 10:51:56;;;;;;;1.38;1.27;;;;;;;;;;5032260;28;20041;-79
2023/04/19 10:54:38;;;;;;;3.20;1.52;;;;;;;;;;5034261;28;20063;-79
2023/04/19 10:57:04;;;;;;;2.63;1.40;;;;;;;;;;5033744;28;20066;-78
2023/04/19 10:59:37;;;;;;;5.75;1.50;;;;;;;;;;5031733;28;20053;-78
2023/04/19 11:02:21;;;;;;;2.58;1.30;;;;;;;;;;5028875;28;20049;-79
2023/04/19 11:04:50;;;;;;;6.00;1.67;;;;;;;;;;5032871;28;20112;-78
2023/04/19 11:07:17;;;;;;;1.92;1.40;;;;;;;;;;5027379;28;20052;-79
2023/04/19 11:09:47;;;;;;;4.05;1.75;;;;;;;;;;5032492;28;20060;-78
2023/04/19 11:12:13;;;;;;;6.38;1.95;;;;;;;;;;5028228;28;20073;-79
2023/04/19 11:14:40;;;;;;;2.10;1.80;;;;;;;;;;5033229;28;20080;-78
2023/04/19 11:17:17;;;;;;;3.83;1.70;;;;;;;;;;5030908;28;20052;-79
2023/04/19 11:19:52;;;;;;;3.30;1.55;;;;;;;;;;5031816;28;20524;-79
2023/04/19 11:22:23;;;;;;;3.33;1.77;;;;;;;;;;5033129;28;20047;-78
2023/04/19 11:24:49;;;;;;;5.35;1.75;;;;;;;;;;5031741;28;20048;-79
2023/04/19 11:27:16;;;;;;;2.83;1.90;;;;;;;;;;5031127;28;20045;-78
2023/04/19 11:29:42;;;;;;;6.03;1.77;;;;;;;;;;5026378;28;20045;-78
2023/04/19 11:32:08;;;;;;;3.67;1.98;;;;;;;;;;5030566;28;20040;-78
2023/04/19 11:34:38;;;;;;;2.55;2.00;;;;;;;;;;5024838;28;20098;-78
2023/04/19 11:37:04;;;;;;;4.35;2.28;;;;;;;;;;5029072;28;20045;-78
2023/04/19 11:39:31;;;;;;;2.75;2.17;;;;;;;;;;5015134;28;20052;-79
2023/04/19 11:41:58;;;;;;;3.72;2.42;;;;;;;;;;5032739;28;20121;-78
2023/04/19 11:44:24;;;;;;;3.88;2.40;;;;;;;;;;5033603;28;20052;-78
2023/04/19 11:47:16;;;;;;;3.92;2.78;;;;;;;;;;5030351;28;20052;-78
2023/04/19 11:49:42;;;;;;;2.50;2.08;;;;;;;;;;5026505;28;20386;-78
2023/04/19 11:52:09;;;;;;;5.63;2.00;;;;;;;;;;5031066;28;20128;-78
2023/04/19 11:54:35;;;;;;;3.70;2.65;;;;;;;;;;5032396;28;20049;-79
2023/04/19 11:57:05;;;;;;;3.13;2.15;;;;;;;;;;5029791;28;20099;-78
2023/04/19 11:59:32;;;;;;;3.65;2.28;;;;;;;;;;5032870;28;20870;-78
2023/04/19 12:02:09;;;;;;;3.92;2.20;;;;;;;;;;5029733;28;20045;-78
2023/04/19 12:04:35;;;;;;;3.88;2.30;;;;;;;;;;5027971;28;20195;-79
2023/04/19 12:07:02;;;;;;;4.57;2.30;;;;;;;;;;5028564;28;20116;-78
2023/04/19 12:09:28;;;;;;;4.68;2.15;;;;;;;;;;5034348;28;20488;-78
2023/04/19 12:11:54;;;;;;;5.05;2.47;;;;;;;;;;5030140;28;20041;-79
2023/04/19 12:14:21;;;;;;;6.82;2.42;;;;;;;;;;5009199;28;21804;-79
2023/04/19 12:17:06;;;;;;;5.25;2.20;;;15.00;99.90;;;;;;5031415;28;20100;-78
2023/04/19 12:19:51;;;;;;;3.05;2.50;;;;;;;;;;5026906;28;20045;-78
2023/04/19 12:22:22;;;;;;;5.88;2.25;;;;;;;;;;5029921;28;21007;-79
2023/04/19 12:24:52;;;;;;;2.45;2.10;;;;;;;;;;5029591;28;20059;-79
2023/04/19 12:27:19;;;;;;;4.40;2.42;;;;;;;;;;5030010;28;20485;-79
2023/04/19 12:29:45;;;;;;;4.63;2.20;;;;;;;;;;5027390;28;20103;-79
2023/04/19 12:32:11;;;;;;;2.83;1.83;;;;;;;;;;5031692;28;20051;-79
2023/04/19 12:34:38;;;;;;;5.55;2.35;;;;;;;;;;5028051;28;20053;-79
2023/04/19 12:37:04;;;;;;;4.93;2.22;;;;;;;;;;5030268;28;20634;-79
2023/04/19 12:39:30;;;;;;;3.90;2.15;;;;;;;;;;5028624;28;20044;-79
2023/04/19 12:41:56;;;;;;;8.30;4.53;;;;;;;;;;5029104;28;20072;-79
2023/04/19 12:44:23;;;;;;;10.10;3.78;;;;;;;;;;5024855;28;20571;-79
2023/04/19 12:46:49;;;;;;;6.65;3.03;;;;;;;;;;5023386;28;22001;-78
2023/04/19 12:49:18;;;;;;;7.95;3.83;;;;;;;;;;5028496;28;20045;-79
2023/04/19 12:51:46;;;;;;;8.73;3.78;;;;;;;;;;5029218;28;20094;-78
2023/04/19 12:54:12;;;;;;;7.53;3.67;;;;;;;;;;5029274;28;20060;-79
2023/04/19 12:58:33;;;;;;;8.75;4.30;;;;;;;;;;5128518;27;20127;-79
2023/04/19 13:00:59;;;;;;;5.05;3.03;;;;;;;;;;5093954;27;20502;-79
2023/04/19 13:03:26;;;;;;;8.98;3.65;;;;;;;;;;5097023;27;20038;-78
2023/04/19 13:05:52;;;;;;;13.43;3.70;;;;;;;;;;5114970;27;20054;-79
2023/04/19 13:08:19;;;;;;;7.93;3.85;;;;;;;;;;5097320;27;20052;-79
2023/04/19 13:10:46;;;;;;;6.78;4.15;;;;;;;;;;5113548;27;20094;-79
2023/04/19 13:13:12;;;;;;;8.38;4.40;;;;;;;;;;5088859;27;20100;-79
2023/04/19 13:15:40;;;;;;;7.70;4.40;;;;;;;;;;5112022;27;20053;-79
2023/04/19 13:18:06;;;;;;;10.20;3.67;;;;;;;;;;5074529;27;20082;-79
2023/04/19 13:20:32;;;;;;;5.18;3.25;;;;;;;;;;5112493;27;20071;-79
2023/04/19 13:22:59;;;;;;;8.05;4.60;;;;;;;;;;5102859;27;20031;-79
2023/04/19 13:25:25;;;;;;;4.18;2.72;;;;;;;;;;5113732;27;20125;-79
2023/04/19 13:27:51;;;;;;;11.57;4.10;;;;;;;;;;5110969;27;20517;-79
2023/04/19 13:30:17;;;;;;;7.60;4.18;;;;;;;;;;5097686;27;20437;-79
2023/04/19 13:32:43;;;;;;;6.80;4.68;;;;;;;;;;5114431;27;20044;-79
2023/04/19 13:35:09;;;;;;;8.88;4.70;;;;;;;;;;5103634;27;20043;-79
2023/04/19 13:37:35;;;;;;;7.97;4.80;;;;;;;;;;5090193;27;20043;-79
2023/04/19 13:40:03;;;;;;;8.45;4.78;;;;;;;;;;5112922;27;20081;-79
2023/04/19 13:42:29;;;;;;;9.57;5.15;;;;;;;;;;5096849;27;20877;-79
2023/04/19 13:44:55;;;;;;;9.90;4.90;;;;;;;;;;5112367;27;20050;-79
2023/04/19 13:47:21;;;;;;;7.38;4.78;;;;;;;;;;5107643;27;20043;-79
2023/04/19 13:49:50;;;;;;;7.60;4.43;;;;;;;;;;5109141;27;20162;-78
2023/04/19 13:52:17;;;;;;;7.50;4.25;;;;;;;;;;5112007;27;20047;-78
2023/04/19 13:54:43;;;;;;;9.32;4.20;;;;;;;;;;5108167;27;21344;-78
2023/04/19 13:57:09;;;;;;;6.28;3.80;;;;;;;;;;5103401;27;20067;-78
2023/04/19 13:59:35;;;;;;;8.43;4.15;;;;;;;;;;5112112;27;20078;-78
2023/04/19 14:02:05;;;;;;;7.80;4.60;;;;;;;;;;5111584;27;20043;-78
2023/04/19 14:04:31;;;;;;;9.77;4.95;;;;;;;;;;5087057;27;20069;-77
2023/04/19 14:06:57;;;;;;;12.75;4.30;;;;;;;;;;5092592;27;20057;-78
2023/04/19 14:09:24;;;;;;;7.13;3.55;;;;;;;;;;5092910;27;20803;-78
2023/04/19 14:11:50;;;;;;;9.82;3.75;;;;;;;;;;5096823;27;20172;-78
2023/04/19 14:14:16;;;;;;;7.35;3.13;;;;;;;;;;5096871;27;20153;-78
2023/04/19 14:16:43;;;;;;;6.70;3.55;;;;;;;;;;5096860;27;20043;-77
2023/04/19 14:19:09;;;;;;;5.65;3.22;;;;;;;;;;5096902;27;20096;-78
2023/04/19 14:21:38;;;;;;;9.38;3.15;;;;;;;;;;5080380;27;20044;-77
2023/04/19 14:24:04;;;;;;;10.52;3.30;;;;;;;;;;5098250;27;20071;-80
2023/04/19 14:26:33;;;;;;;8.57;3.38;;;;;;;;;;5089846;27;20065;-77
2023/04/19 14:29:00;;;;;;;5.18;3.13;;;;;;;;;;5090603;27;22018;-78
2023/04/19 14:31:26;;;;;;;5.47;2.47;;;;;;;;;;5097296;27;20407;-78
2023/04/19 14:33:55;;;;;;;7.03;2.88;;;;;;;;;;5090373;27;20082;-78
2023/04/19 14:36:21;;;;;;;3.90;2.28;;;;;;;;;;5095978;27;20038;-79
2023/04/19 14:38:47;;;;;;;5.68;2.65;;;;;;;;;;5059087;27;20517;-78